sensor_id;sensor_type;location;lat;lon;timestamp;P1;durP1;ratioP1;P2;durP2;ratioP2
41229;SDS011;26964;50.428;19.218;2023-12-20T00:00:05;11.3;;;7.3;;
41229;SDS011;26964;50.428;19.218;2023-12-20T00:01:04;12.5;;;7.9;;
41229;SDS011;26964;50.428;19.218;2023-12-20T00:02:04;11.8;;;7.5;;
41229;SDS011;26964;50.428;19.218;2023-12-20T00:03:07;12.6;;;7.7;;
41229;SDS011;26964;50.428;19.218;2023-12-20T00:04:05;12.0;;;7.4;;
41229;SDS011;26964;50.428;19.218;2023-12-20T00:05:06;14.7;;;7.8;;
41229;SDS011;26964;50.428;19.218;2023-12-20T00:06:04;12.1;;;7.6;;
41229;SDS011;26964;50.428;19.218;2023-12-20T00:07:04;12.2;;;7.5;;
41229;SDS011;26964;50.428;19.218;2023-12-20T00:08:05;12.4;;;7.5;;
41229;SDS011;26964;50.428;19.218;2023-12-20T00:09:04;12.7;;;7.4;;
41229;SDS011;26964;50.428;19.218;2023-12-20T00:10:05;15.1;;;8.6;;
41229;SDS011;26964;50.428;19.218;2023-12-20T00:11:04;12.2;;;7.6;;
41229;SDS011;26964;50.428;19.218;2023-12-20T00:12:05;13.6;;;8.5;;
41229;SDS011;26964;50.428;19.218;2023-12-20T00:13:04;12.9;;;7.9;;
41229;SDS011;26964;50.428;19.218;2023-12-20T00:14:04;13.6;;;8.3;;
41229;SDS011;26964;50.428;19.218;2023-12-20T00:15:05;13.5;;;9.0;;
41229;SDS011;26964;50.428;19.218;2023-12-20T00:16:05;14.1;;;8.5;;
41229;SDS011;26964;50.428;19.218;2023-12-20T00:17:04;15.2;;;8.8;;
41229;SDS011;26964;50.428;19.218;2023-12-20T00:18:04;12.3;;;7.7;;
41229;SDS011;26964;50.428;19.218;2023-12-20T00:19:04;13.9;;;7.8;;
41229;SDS011;26964;50.428;19.218;2023-12-20T00:20:05;14.2;;;8.6;;
41229;SDS011;26964;50.428;19.218;2023-12-20T00:21:04;12.0;;;7.9;;
41229;SDS011;26964;50.428;19.218;2023-12-20T00:22:04;13.8;;;8.2;;
41229;SDS011;26964;50.428;19.218;2023-12-20T00:23:05;15.0;;;8.4;;
41229;SDS011;26964;50.428;19.218;2023-12-20T00:24:07;12.8;;;8.1;;
41229;SDS011;26964;50.428;19.218;2023-12-20T00:25:04;12.7;;;8.5;;
41229;SDS011;26964;50.428;19.218;2023-12-20T00:26:04;15.3;;;9.6;;
41229;SDS011;26964;50.428;19.218;2023-12-20T00:27:04;16.7;;;9.6;;
41229;SDS011;26964;50.428;19.218;2023-12-20T00:28:05;13.7;;;8.7;;
41229;SDS011;26964;50.428;19.218;2023-12-20T00:29:04;13.7;;;8.4;;
41229;SDS011;26964;50.428;19.218;2023-12-20T00:30:05;18.0;;;10.8;;
41229;SDS011;26964;50.428;19.218;2023-12-20T00:31:04;15.6;;;8.6;;
41229;SDS011;26964;50.428;19.218;2023-12-20T00:32:05;13.2;;;8.3;;
41229;SDS011;26964;50.428;19.218;2023-12-20T00:33:04;16.5;;;10.0;;
41229;SDS011;26964;50.428;19.218;2023-12-20T00:34:04;17.9;;;10.5;;
41229;SDS011;26964;50.428;19.218;2023-12-20T00:35:04;17.8;;;9.3;;
41229;SDS011;26964;50.428;19.218;2023-12-20T00:36:05;14.3;;;9.3;;
41229;SDS011;26964;50.428;19.218;2023-12-20T00:37:04;16.0;;;10.6;;
41229;SDS011;26964;50.428;19.218;2023-12-20T00:38:04;16.2;;;10.0;;
41229;SDS011;26964;50.428;19.218;2023-12-20T00:39:04;15.2;;;9.9;;
41229;SDS011;26964;50.428;19.218;2023-12-20T00:40:05;16.0;;;10.0;;
41229;SDS011;26964;50.428;19.218;2023-12-20T00:41:04;15.7;;;10.3;;
41229;SDS011;26964;50.428;19.218;2023-12-20T00:42:04;22.0;;;12.9;;
41229;SDS011;26964;50.428;19.218;2023-12-20T00:43:05;32.6;;;17.6;;
41229;SDS011;26964;50.428;19.218;2023-12-20T00:44:05;24.9;;;13.6;;
41229;SDS011;26964;50.428;19.218;2023-12-20T00:45:08;18.5;;;11.7;;
41229;SDS011;26964;50.428;19.218;2023-12-20T00:46:04;20.3;;;11.7;;
41229;SDS011;26964;50.428;19.218;2023-12-20T00:47:04;24.3;;;12.4;;
41229;SDS011;26964;50.428;19.218;2023-12-20T00:48:05;20.6;;;12.0;;
41229;SDS011;26964;50.428;19.218;2023-12-20T00:49:04;22.1;;;12.8;;
41229;SDS011;26964;50.428;19.218;2023-12-20T00:50:05;20.2;;;12.0;;
41229;SDS011;26964;50.428;19.218;2023-12-20T00:51:04;20.0;;;12.4;;
41229;SDS011;26964;50.428;19.218;2023-12-20T00:52:05;20.0;;;12.2;;
41229;SDS011;26964;50.428;19.218;2023-12-20T00:53:04;21.2;;;12.1;;
41229;SDS011;26964;50.428;19.218;2023-12-20T00:54:04;20.5;;;12.3;;
41229;SDS011;26964;50.428;19.218;2023-12-20T00:55:05;21.2;;;12.4;;
41229;SDS011;26964;50.428;19.218;2023-12-20T00:56:04;20.2;;;11.2;;
41229;SDS011;26964;50.428;19.218;2023-12-20T00:57:04;23.9;;;12.6;;
41229;SDS011;26964;50.428;19.218;2023-12-20T00:58:04;19.3;;;11.9;;
41229;SDS011;26964;50.428;19.218;2023-12-20T00:59:04;19.5;;;12.3;;
41229;SDS011;26964;50.428;19.218;2023-12-20T01:00:05;18.6;;;11.3;;
41229;SDS011;26964;50.428;19.218;2023-12-20T01:01:04;23.4;;;12.5;;
41229;SDS011;26964;50.428;19.218;2023-12-20T01:02:04;20.1;;;11.6;;
41229;SDS011;26964;50.428;19.218;2023-12-20T01:03:04;19.6;;;11.9;;
41229;SDS011;26964;50.428;19.218;2023-12-20T01:04:04;16.7;;;10.8;;
41229;SDS011;26964;50.428;19.218;2023-12-20T01:05:05;16.4;;;10.8;;
41229;SDS011;26964;50.428;19.218;2023-12-20T01:07:04;15.8;;;10.6;;
41229;SDS011;26964;50.428;19.218;2023-12-20T01:08:04;16.3;;;10.9;;
41229;SDS011;26964;50.428;19.218;2023-12-20T01:09:04;18.4;;;10.9;;
41229;SDS011;26964;50.428;19.218;2023-12-20T01:10:04;19.2;;;10.7;;
41229;SDS011;26964;50.428;19.218;2023-12-20T01:11:05;15.5;;;9.8;;
41229;SDS011;26964;50.428;19.218;2023-12-20T01:12:05;16.6;;;9.7;;
41229;SDS011;26964;50.428;19.218;2023-12-20T01:13:04;14.8;;;10.2;;
41229;SDS011;26964;50.428;19.218;2023-12-20T01:14:04;14.6;;;9.2;;
41229;SDS011;26964;50.428;19.218;2023-12-20T01:15:05;13.9;;;8.8;;
41229;SDS011;26964;50.428;19.218;2023-12-20T01:16:04;16.4;;;11.3;;
41229;SDS011;26964;50.428;19.218;2023-12-20T01:17:04;17.2;;;10.8;;
41229;SDS011;26964;50.428;19.218;2023-12-20T01:18:04;17.9;;;10.6;;
41229;SDS011;26964;50.428;19.218;2023-12-20T01:19:04;15.6;;;10.2;;
41229;SDS011;26964;50.428;19.218;2023-12-20T01:20:05;18.9;;;10.1;;
41229;SDS011;26964;50.428;19.218;2023-12-20T01:21:04;17.1;;;10.5;;
41229;SDS011;26964;50.428;19.218;2023-12-20T01:22:04;15.2;;;9.9;;
41229;SDS011;26964;50.428;19.218;2023-12-20T01:23:04;16.4;;;10.0;;
41229;SDS011;26964;50.428;19.218;2023-12-20T01:24:04;20.3;;;10.5;;
41229;SDS011;26964;50.428;19.218;2023-12-20T01:25:04;15.4;;;9.9;;
41229;SDS011;26964;50.428;19.218;2023-12-20T01:26:05;17.1;;;10.0;;
41229;SDS011;26964;50.428;19.218;2023-12-20T01:28:04;15.8;;;9.9;;
41229;SDS011;26964;50.428;19.218;2023-12-20T01:29:04;16.2;;;9.2;;
41229;SDS011;26964;50.428;19.218;2023-12-20T01:30:05;16.2;;;9.1;;
41229;SDS011;26964;50.428;19.218;2023-12-20T01:31:04;14.2;;;9.6;;
41229;SDS011;26964;50.428;19.218;2023-12-20T01:32:05;14.1;;;8.8;;
41229;SDS011;26964;50.428;19.218;2023-12-20T01:33:04;15.5;;;9.6;;
41229;SDS011;26964;50.428;19.218;2023-12-20T01:34:04;15.0;;;9.3;;
41229;SDS011;26964;50.428;19.218;2023-12-20T01:35:04;14.9;;;8.7;;
41229;SDS011;26964;50.428;19.218;2023-12-20T01:36:05;16.0;;;9.9;;
41229;SDS011;26964;50.428;19.218;2023-12-20T01:37:04;14.9;;;9.3;;
41229;SDS011;26964;50.428;19.218;2023-12-20T01:38:08;18.6;;;11.8;;
41229;SDS011;26964;50.428;19.218;2023-12-20T01:39:04;22.6;;;14.8;;
41229;SDS011;26964;50.428;19.218;2023-12-20T01:40:05;22.3;;;14.2;;
41229;SDS011;26964;50.428;19.218;2023-12-20T01:41:04;23.1;;;14.7;;
41229;SDS011;26964;50.428;19.218;2023-12-20T01:42:04;24.3;;;15.1;;
41229;SDS011;26964;50.428;19.218;2023-12-20T01:43:07;23.0;;;13.4;;
41229;SDS011;26964;50.428;19.218;2023-12-20T01:44:04;18.6;;;12.8;;
41229;SDS011;26964;50.428;19.218;2023-12-20T01:45:05;21.8;;;12.8;;
41229;SDS011;26964;50.428;19.218;2023-12-20T01:46:04;20.1;;;11.9;;
41229;SDS011;26964;50.428;19.218;2023-12-20T01:47:07;23.4;;;11.2;;
41229;SDS011;26964;50.428;19.218;2023-12-20T01:48:05;18.8;;;10.3;;
41229;SDS011;26964;50.428;19.218;2023-12-20T01:49:04;27.9;;;16.4;;
41229;SDS011;26964;50.428;19.218;2023-12-20T01:50:05;15.7;;;10.3;;
41229;SDS011;26964;50.428;19.218;2023-12-20T01:51:04;16.1;;;10.8;;
41229;SDS011;26964;50.428;19.218;2023-12-20T01:52:04;15.7;;;9.9;;
41229;SDS011;26964;50.428;19.218;2023-12-20T01:53:05;14.5;;;9.5;;
41229;SDS011;26964;50.428;19.218;2023-12-20T01:54:04;15.3;;;9.8;;
41229;SDS011;26964;50.428;19.218;2023-12-20T01:55:05;18.8;;;11.4;;
41229;SDS011;26964;50.428;19.218;2023-12-20T01:56:04;15.1;;;10.2;;
41229;SDS011;26964;50.428;19.218;2023-12-20T01:57:04;15.8;;;10.6;;
41229;SDS011;26964;50.428;19.218;2023-12-20T01:58:04;16.6;;;11.1;;
41229;SDS011;26964;50.428;19.218;2023-12-20T01:59:04;16.3;;;11.6;;
41229;SDS011;26964;50.428;19.218;2023-12-20T02:00:05;20.0;;;13.0;;
41229;SDS011;26964;50.428;19.218;2023-12-20T02:01:04;21.4;;;12.7;;
41229;SDS011;26964;50.428;19.218;2023-12-20T02:02:04;25.1;;;17.1;;
41229;SDS011;26964;50.428;19.218;2023-12-20T02:03:04;22.6;;;14.1;;
41229;SDS011;26964;50.428;19.218;2023-12-20T02:04:04;26.4;;;17.1;;
41229;SDS011;26964;50.428;19.218;2023-12-20T02:05:04;23.3;;;15.4;;
41229;SDS011;26964;50.428;19.218;2023-12-20T02:06:04;21.1;;;12.9;;
41229;SDS011;26964;50.428;19.218;2023-12-20T02:07:05;34.5;;;19.8;;
41229;SDS011;26964;50.428;19.218;2023-12-20T02:08:07;28.6;;;17.4;;
41229;SDS011;26964;50.428;19.218;2023-12-20T02:09:04;58.6;;;29.9;;
41229;SDS011;26964;50.428;19.218;2023-12-20T02:10:05;39.3;;;21.3;;
41229;SDS011;26964;50.428;19.218;2023-12-20T02:11:05;104.8;;;41.5;;
41229;SDS011;26964;50.428;19.218;2023-12-20T02:12:05;185.2;;;64.5;;
41229;SDS011;26964;50.428;19.218;2023-12-20T02:13:04;104.8;;;39.1;;
41229;SDS011;26964;50.428;19.218;2023-12-20T02:14:04;90.6;;;34.0;;
41229;SDS011;26964;50.428;19.218;2023-12-20T02:15:05;32.7;;;15.0;;
41229;SDS011;26964;50.428;19.218;2023-12-20T02:16:05;261.4;;;84.2;;
41229;SDS011;26964;50.428;19.218;2023-12-20T02:17:05;492.6;;;161.3;;
41229;SDS011;26964;50.428;19.218;2023-12-20T02:18:05;516.8;;;165.6;;
41229;SDS011;26964;50.428;19.218;2023-12-20T02:19:05;488.0;;;152.2;;
41229;SDS011;26964;50.428;19.218;2023-12-20T02:20:05;480.0;;;145.8;;
41229;SDS011;26964;50.428;19.218;2023-12-20T02:21:05;293.1;;;87.6;;
41229;SDS011;26964;50.428;19.218;2023-12-20T02:22:05;190.2;;;54.9;;
41229;SDS011;26964;50.428;19.218;2023-12-20T02:23:04;71.5;;;22.6;;
41229;SDS011;26964;50.428;19.218;2023-12-20T02:24:04;31.7;;;12.8;;
41229;SDS011;26964;50.428;19.218;2023-12-20T02:25:04;26.6;;;11.6;;
41229;SDS011;26964;50.428;19.218;2023-12-20T02:26:04;41.2;;;15.1;;
41229;SDS011;26964;50.428;19.218;2023-12-20T02:27:05;68.3;;;20.3;;
41229;SDS011;26964;50.428;19.218;2023-12-20T02:28:04;27.3;;;11.7;;
41229;SDS011;26964;50.428;19.218;2023-12-20T02:29:07;20.5;;;10.1;;
41229;SDS011;26964;50.428;19.218;2023-12-20T02:30:05;29.6;;;11.6;;
41229;SDS011;26964;50.428;19.218;2023-12-20T02:31:04;37.1;;;13.8;;
41229;SDS011;26964;50.428;19.218;2023-12-20T02:32:04;55.1;;;17.4;;
41229;SDS011;26964;50.428;19.218;2023-12-20T02:33:05;22.1;;;10.3;;
41229;SDS011;26964;50.428;19.218;2023-12-20T02:34:04;16.5;;;9.0;;
41229;SDS011;26964;50.428;19.218;2023-12-20T02:35:04;24.7;;;10.8;;
41229;SDS011;26964;50.428;19.218;2023-12-20T02:36:04;53.0;;;17.6;;
41229;SDS011;26964;50.428;19.218;2023-12-20T02:37:04;45.3;;;16.4;;
41229;SDS011;26964;50.428;19.218;2023-12-20T02:38:04;51.2;;;18.2;;
41229;SDS011;26964;50.428;19.218;2023-12-20T02:39:04;59.9;;;18.6;;
41229;SDS011;26964;50.428;19.218;2023-12-20T02:40:05;44.6;;;15.7;;
41229;SDS011;26964;50.428;19.218;2023-12-20T02:41:04;52.7;;;17.6;;
41229;SDS011;26964;50.428;19.218;2023-12-20T02:42:04;55.3;;;21.2;;
41229;SDS011;26964;50.428;19.218;2023-12-20T02:43:04;37.9;;;13.6;;
41229;SDS011;26964;50.428;19.218;2023-12-20T02:44:04;45.6;;;15.4;;
41229;SDS011;26964;50.428;19.218;2023-12-20T02:45:05;38.3;;;15.7;;
41229;SDS011;26964;50.428;19.218;2023-12-20T02:46:05;34.0;;;14.1;;
41229;SDS011;26964;50.428;19.218;2023-12-20T02:47:05;118.1;;;40.9;;
41229;SDS011;26964;50.428;19.218;2023-12-20T02:48:05;138.7;;;48.6;;
41229;SDS011;26964;50.428;19.218;2023-12-20T02:49:07;147.9;;;50.2;;
41229;SDS011;26964;50.428;19.218;2023-12-20T02:50:08;172.1;;;60.7;;
41229;SDS011;26964;50.428;19.218;2023-12-20T02:51:05;161.1;;;51.9;;
41229;SDS011;26964;50.428;19.218;2023-12-20T02:52:04;119.4;;;39.6;;
41229;SDS011;26964;50.428;19.218;2023-12-20T02:53:05;92.1;;;31.1;;
41229;SDS011;26964;50.428;19.218;2023-12-20T02:54:05;188.3;;;59.0;;
41229;SDS011;26964;50.428;19.218;2023-12-20T02:55:04;114.9;;;35.2;;
41229;SDS011;26964;50.428;19.218;2023-12-20T02:56:04;61.0;;;20.1;;
41229;SDS011;26964;50.428;19.218;2023-12-20T02:57:05;36.0;;;15.5;;
41229;SDS011;26964;50.428;19.218;2023-12-20T02:58:05;337.4;;;100.3;;
41229;SDS011;26964;50.428;19.218;2023-12-20T02:59:05;576.5;;;180.9;;
41229;SDS011;26964;50.428;19.218;2023-12-20T03:00:08;259.1;;;74.3;;
41229;SDS011;26964;50.428;19.218;2023-12-20T03:01:04;114.2;;;34.3;;
41229;SDS011;26964;50.428;19.218;2023-12-20T03:02:04;46.2;;;16.8;;
41229;SDS011;26964;50.428;19.218;2023-12-20T03:03:04;59.1;;;18.5;;
41229;SDS011;26964;50.428;19.218;2023-12-20T03:04:04;44.2;;;17.0;;
41229;SDS011;26964;50.428;19.218;2023-12-20T03:05:04;93.2;;;26.8;;
41229;SDS011;26964;50.428;19.218;2023-12-20T03:06:04;45.3;;;15.7;;
41229;SDS011;26964;50.428;19.218;2023-12-20T03:07:04;35.1;;;15.0;;
41229;SDS011;26964;50.428;19.218;2023-12-20T03:08:04;23.4;;;11.5;;
41229;SDS011;26964;50.428;19.218;2023-12-20T03:09:04;58.0;;;17.9;;
41229;SDS011;26964;50.428;19.218;2023-12-20T03:10:06;33.5;;;13.5;;
41229;SDS011;26964;50.428;19.218;2023-12-20T03:12:04;16.2;;;9.4;;
41229;SDS011;26964;50.428;19.218;2023-12-20T03:13:04;18.6;;;10.7;;
41229;SDS011;26964;50.428;19.218;2023-12-20T03:14:04;18.3;;;10.4;;
41229;SDS011;26964;50.428;19.218;2023-12-20T03:15:04;26.3;;;12.7;;
41229;SDS011;26964;50.428;19.218;2023-12-20T03:17:04;34.6;;;15.7;;
41229;SDS011;26964;50.428;19.218;2023-12-20T03:18:04;35.0;;;15.6;;
41229;SDS011;26964;50.428;19.218;2023-12-20T03:19:04;38.8;;;17.3;;
41229;SDS011;26964;50.428;19.218;2023-12-20T03:20:05;24.4;;;12.8;;
41229;SDS011;26964;50.428;19.218;2023-12-20T03:21:04;31.7;;;15.1;;
41229;SDS011;26964;50.428;19.218;2023-12-20T03:22:04;37.2;;;16.4;;
41229;SDS011;26964;50.428;19.218;2023-12-20T03:23:04;33.7;;;16.8;;
41229;SDS011;26964;50.428;19.218;2023-12-20T03:24:04;43.1;;;21.9;;
41229;SDS011;26964;50.428;19.218;2023-12-20T03:25:04;35.9;;;17.1;;
41229;SDS011;26964;50.428;19.218;2023-12-20T03:26:06;27.5;;;14.7;;
41229;SDS011;26964;50.428;19.218;2023-12-20T03:27:04;22.0;;;12.7;;
41229;SDS011;26964;50.428;19.218;2023-12-20T03:28:04;24.7;;;13.1;;
41229;SDS011;26964;50.428;19.218;2023-12-20T03:29:04;25.4;;;14.0;;
41229;SDS011;26964;50.428;19.218;2023-12-20T03:30:05;27.3;;;15.2;;
41229;SDS011;26964;50.428;19.218;2023-12-20T03:31:07;25.0;;;13.4;;
41229;SDS011;26964;50.428;19.218;2023-12-20T03:32:04;20.5;;;11.8;;
41229;SDS011;26964;50.428;19.218;2023-12-20T03:33:04;22.1;;;12.8;;
41229;SDS011;26964;50.428;19.218;2023-12-20T03:34:04;26.6;;;14.0;;
41229;SDS011;26964;50.428;19.218;2023-12-20T03:35:04;22.4;;;13.6;;
41229;SDS011;26964;50.428;19.218;2023-12-20T03:36:04;20.7;;;12.1;;
41229;SDS011;26964;50.428;19.218;2023-12-20T03:37:04;23.3;;;13.0;;
41229;SDS011;26964;50.428;19.218;2023-12-20T03:38:04;19.7;;;11.8;;
41229;SDS011;26964;50.428;19.218;2023-12-20T03:39:04;20.1;;;11.9;;
41229;SDS011;26964;50.428;19.218;2023-12-20T03:40:04;19.7;;;11.4;;
41229;SDS011;26964;50.428;19.218;2023-12-20T03:41:04;19.9;;;11.9;;
41229;SDS011;26964;50.428;19.218;2023-12-20T03:42:04;17.4;;;11.5;;
41229;SDS011;26964;50.428;19.218;2023-12-20T03:43:04;20.1;;;10.8;;
41229;SDS011;26964;50.428;19.218;2023-12-20T03:44:04;18.5;;;11.4;;
41229;SDS011;26964;50.428;19.218;2023-12-20T03:45:04;21.4;;;13.1;;
41229;SDS011;26964;50.428;19.218;2023-12-20T03:46:04;30.2;;;18.3;;
41229;SDS011;26964;50.428;19.218;2023-12-20T03:47:04;20.7;;;12.4;;
41229;SDS011;26964;50.428;19.218;2023-12-20T03:48:04;17.3;;;11.6;;
41229;SDS011;26964;50.428;19.218;2023-12-20T03:49:04;17.1;;;11.1;;
41229;SDS011;26964;50.428;19.218;2023-12-20T03:50:04;17.7;;;10.5;;
41229;SDS011;26964;50.428;19.218;2023-12-20T03:51:04;17.4;;;11.0;;
41229;SDS011;26964;50.428;19.218;2023-12-20T03:52:07;19.4;;;11.8;;
41229;SDS011;26964;50.428;19.218;2023-12-20T03:53:04;22.2;;;12.9;;
41229;SDS011;26964;50.428;19.218;2023-12-20T03:54:04;32.6;;;17.2;;
41229;SDS011;26964;50.428;19.218;2023-12-20T03:55:05;33.7;;;15.7;;
41229;SDS011;26964;50.428;19.218;2023-12-20T03:56:04;21.3;;;11.7;;
41229;SDS011;26964;50.428;19.218;2023-12-20T03:57:04;26.6;;;14.2;;
41229;SDS011;26964;50.428;19.218;2023-12-20T03:58:04;34.7;;;16.0;;
41229;SDS011;26964;50.428;19.218;2023-12-20T03:59:04;23.9;;;13.6;;
41229;SDS011;26964;50.428;19.218;2023-12-20T04:00:04;18.5;;;10.7;;
41229;SDS011;26964;50.428;19.218;2023-12-20T04:02:04;14.1;;;9.6;;
41229;SDS011;26964;50.428;19.218;2023-12-20T04:03:04;17.6;;;10.0;;
41229;SDS011;26964;50.428;19.218;2023-12-20T04:04:04;14.6;;;10.2;;
41229;SDS011;26964;50.428;19.218;2023-12-20T04:05:04;18.6;;;10.6;;
41229;SDS011;26964;50.428;19.218;2023-12-20T04:06:04;19.0;;;11.0;;
41229;SDS011;26964;50.428;19.218;2023-12-20T04:07:04;15.2;;;9.6;;
41229;SDS011;26964;50.428;19.218;2023-12-20T04:08:04;14.9;;;10.3;;
41229;SDS011;26964;50.428;19.218;2023-12-20T04:09:04;18.0;;;10.6;;
41229;SDS011;26964;50.428;19.218;2023-12-20T04:10:04;16.4;;;10.0;;
41229;SDS011;26964;50.428;19.218;2023-12-20T04:11:04;16.4;;;10.4;;
41229;SDS011;26964;50.428;19.218;2023-12-20T04:12:05;15.9;;;10.2;;
41229;SDS011;26964;50.428;19.218;2023-12-20T04:13:07;21.4;;;12.4;;
41229;SDS011;26964;50.428;19.218;2023-12-20T04:14:04;18.9;;;10.9;;
41229;SDS011;26964;50.428;19.218;2023-12-20T04:15:04;17.6;;;11.0;;
41229;SDS011;26964;50.428;19.218;2023-12-20T04:16:04;23.2;;;13.2;;
41229;SDS011;26964;50.428;19.218;2023-12-20T04:17:04;16.7;;;11.2;;
41229;SDS011;26964;50.428;19.218;2023-12-20T04:18:04;17.2;;;10.2;;
41229;SDS011;26964;50.428;19.218;2023-12-20T04:19:04;22.7;;;13.8;;
41229;SDS011;26964;50.428;19.218;2023-12-20T04:20:04;19.3;;;12.2;;
41229;SDS011;26964;50.428;19.218;2023-12-20T04:21:04;17.8;;;11.5;;
41229;SDS011;26964;50.428;19.218;2023-12-20T04:22:04;17.2;;;11.2;;
41229;SDS011;26964;50.428;19.218;2023-12-20T04:23:04;17.0;;;11.3;;
41229;SDS011;26964;50.428;19.218;2023-12-20T04:24:04;17.6;;;11.7;;
41229;SDS011;26964;50.428;19.218;2023-12-20T04:25:04;14.9;;;11.0;;
41229;SDS011;26964;50.428;19.218;2023-12-20T04:26:04;16.1;;;10.6;;
41229;SDS011;26964;50.428;19.218;2023-12-20T04:27:04;16.8;;;10.1;;
41229;SDS011;26964;50.428;19.218;2023-12-20T04:28:04;15.8;;;11.1;;
41229;SDS011;26964;50.428;19.218;2023-12-20T04:29:04;19.6;;;12.4;;
41229;SDS011;26964;50.428;19.218;2023-12-20T04:30:04;17.7;;;11.3;;
41229;SDS011;26964;50.428;19.218;2023-12-20T04:31:04;19.8;;;12.3;;
41229;SDS011;26964;50.428;19.218;2023-12-20T04:32:04;18.1;;;11.1;;
41229;SDS011;26964;50.428;19.218;2023-12-20T04:33:05;19.7;;;11.6;;
41229;SDS011;26964;50.428;19.218;2023-12-20T04:35:04;20.8;;;11.9;;
41229;SDS011;26964;50.428;19.218;2023-12-20T04:36:04;17.9;;;12.2;;
41229;SDS011;26964;50.428;19.218;2023-12-20T04:37:04;19.6;;;12.4;;
41229;SDS011;26964;50.428;19.218;2023-12-20T04:38:04;16.5;;;11.2;;
41229;SDS011;26964;50.428;19.218;2023-12-20T04:39:04;16.3;;;11.4;;
41229;SDS011;26964;50.428;19.218;2023-12-20T04:40:04;18.8;;;12.1;;
41229;SDS011;26964;50.428;19.218;2023-12-20T04:41:04;18.7;;;11.6;;
41229;SDS011;26964;50.428;19.218;2023-12-20T04:42:04;18.3;;;11.7;;
41229;SDS011;26964;50.428;19.218;2023-12-20T04:43:04;19.3;;;12.0;;
41229;SDS011;26964;50.428;19.218;2023-12-20T04:44:04;17.2;;;11.7;;
41229;SDS011;26964;50.428;19.218;2023-12-20T04:45:04;22.4;;;13.9;;
41229;SDS011;26964;50.428;19.218;2023-12-20T04:46:04;18.2;;;13.0;;
41229;SDS011;26964;50.428;19.218;2023-12-20T04:47:04;18.7;;;13.1;;
41229;SDS011;26964;50.428;19.218;2023-12-20T04:48:04;18.4;;;12.7;;
41229;SDS011;26964;50.428;19.218;2023-12-20T04:49:04;18.5;;;12.4;;
41229;SDS011;26964;50.428;19.218;2023-12-20T04:50:05;19.4;;;13.6;;
41229;SDS011;26964;50.428;19.218;2023-12-20T04:51:04;18.6;;;12.8;;
41229;SDS011;26964;50.428;19.218;2023-12-20T04:52:04;20.2;;;12.7;;
41229;SDS011;26964;50.428;19.218;2023-12-20T04:53:04;22.9;;;14.3;;
41229;SDS011;26964;50.428;19.218;2023-12-20T04:54:05;19.6;;;12.7;;
41229;SDS011;26964;50.428;19.218;2023-12-20T04:55:07;28.2;;;17.4;;
41229;SDS011;26964;50.428;19.218;2023-12-20T04:56:04;24.1;;;15.6;;
41229;SDS011;26964;50.428;19.218;2023-12-20T04:57:04;20.5;;;13.3;;
41229;SDS011;26964;50.428;19.218;2023-12-20T04:58:04;22.2;;;13.9;;
41229;SDS011;26964;50.428;19.218;2023-12-20T04:59:04;28.2;;;16.0;;
41229;SDS011;26964;50.428;19.218;2023-12-20T05:00:04;37.1;;;19.5;;
41229;SDS011;26964;50.428;19.218;2023-12-20T05:01:04;26.1;;;15.2;;
41229;SDS011;26964;50.428;19.218;2023-12-20T05:02:04;25.5;;;13.7;;
41229;SDS011;26964;50.428;19.218;2023-12-20T05:03:04;23.7;;;13.7;;
41229;SDS011;26964;50.428;19.218;2023-12-20T05:04:04;22.4;;;13.3;;
41229;SDS011;26964;50.428;19.218;2023-12-20T05:05:04;25.1;;;13.9;;
41229;SDS011;26964;50.428;19.218;2023-12-20T05:06:04;26.1;;;15.6;;
41229;SDS011;26964;50.428;19.218;2023-12-20T05:07:04;21.8;;;13.9;;
41229;SDS011;26964;50.428;19.218;2023-12-20T05:08:04;35.5;;;20.6;;
41229;SDS011;26964;50.428;19.218;2023-12-20T05:09:04;30.3;;;17.5;;
41229;SDS011;26964;50.428;19.218;2023-12-20T05:10:04;28.6;;;15.6;;
41229;SDS011;26964;50.428;19.218;2023-12-20T05:11:04;25.2;;;14.8;;
41229;SDS011;26964;50.428;19.218;2023-12-20T05:12:04;42.0;;;22.5;;
41229;SDS011;26964;50.428;19.218;2023-12-20T05:13:04;34.4;;;18.3;;
41229;SDS011;26964;50.428;19.218;2023-12-20T05:14:04;36.2;;;21.1;;
41229;SDS011;26964;50.428;19.218;2023-12-20T05:15:05;34.6;;;19.5;;
41229;SDS011;26964;50.428;19.218;2023-12-20T05:17:04;34.9;;;20.0;;
41229;SDS011;26964;50.428;19.218;2023-12-20T05:18:04;30.1;;;19.6;;
41229;SDS011;26964;50.428;19.218;2023-12-20T05:19:04;34.5;;;20.0;;
41229;SDS011;26964;50.428;19.218;2023-12-20T05:20:04;39.1;;;21.1;;
41229;SDS011;26964;50.428;19.218;2023-12-20T05:21:04;31.3;;;18.7;;
41229;SDS011;26964;50.428;19.218;2023-12-20T05:22:04;29.4;;;18.2;;
41229;SDS011;26964;50.428;19.218;2023-12-20T05:23:04;24.9;;;16.6;;
41229;SDS011;26964;50.428;19.218;2023-12-20T05:24:04;24.2;;;15.8;;
41229;SDS011;26964;50.428;19.218;2023-12-20T05:25:04;23.2;;;14.7;;
41229;SDS011;26964;50.428;19.218;2023-12-20T05:26:04;21.7;;;15.1;;
41229;SDS011;26964;50.428;19.218;2023-12-20T05:27:04;23.8;;;15.4;;
41229;SDS011;26964;50.428;19.218;2023-12-20T05:28:04;24.8;;;16.2;;
41229;SDS011;26964;50.428;19.218;2023-12-20T05:29:04;25.2;;;16.7;;
41229;SDS011;26964;50.428;19.218;2023-12-20T05:30:04;22.9;;;15.8;;
41229;SDS011;26964;50.428;19.218;2023-12-20T05:31:04;23.0;;;15.2;;
41229;SDS011;26964;50.428;19.218;2023-12-20T05:32:04;23.3;;;14.8;;
41229;SDS011;26964;50.428;19.218;2023-12-20T05:33:04;29.4;;;16.4;;
41229;SDS011;26964;50.428;19.218;2023-12-20T05:34:04;23.2;;;16.4;;
41229;SDS011;26964;50.428;19.218;2023-12-20T05:35:04;24.9;;;16.6;;
41229;SDS011;26964;50.428;19.218;2023-12-20T05:36:05;26.1;;;16.0;;
41229;SDS011;26964;50.428;19.218;2023-12-20T05:37:04;26.1;;;16.8;;
41229;SDS011;26964;50.428;19.218;2023-12-20T05:38:04;22.3;;;16.6;;
41229;SDS011;26964;50.428;19.218;2023-12-20T05:39:04;24.4;;;16.0;;
41229;SDS011;26964;50.428;19.218;2023-12-20T05:40:04;23.9;;;15.4;;
41229;SDS011;26964;50.428;19.218;2023-12-20T05:41:04;22.5;;;16.9;;
41229;SDS011;26964;50.428;19.218;2023-12-20T05:42:04;23.9;;;16.1;;
41229;SDS011;26964;50.428;19.218;2023-12-20T05:43:04;21.9;;;15.3;;
41229;SDS011;26964;50.428;19.218;2023-12-20T05:44:04;21.7;;;15.8;;
41229;SDS011;26964;50.428;19.218;2023-12-20T05:45:04;20.4;;;14.7;;
41229;SDS011;26964;50.428;19.218;2023-12-20T05:46:04;23.1;;;15.4;;
41229;SDS011;26964;50.428;19.218;2023-12-20T05:47:04;23.7;;;15.5;;
41229;SDS011;26964;50.428;19.218;2023-12-20T05:48:04;22.4;;;16.0;;
41229;SDS011;26964;50.428;19.218;2023-12-20T05:49:04;21.7;;;14.8;;
41229;SDS011;26964;50.428;19.218;2023-12-20T05:50:04;24.4;;;16.0;;
41229;SDS011;26964;50.428;19.218;2023-12-20T05:51:04;26.5;;;15.7;;
41229;SDS011;26964;50.428;19.218;2023-12-20T05:52:04;24.7;;;16.2;;
41229;SDS011;26964;50.428;19.218;2023-12-20T05:53:04;32.8;;;21.2;;
41229;SDS011;26964;50.428;19.218;2023-12-20T05:54:04;29.5;;;19.1;;
41229;SDS011;26964;50.428;19.218;2023-12-20T05:55:04;27.7;;;17.5;;
41229;SDS011;26964;50.428;19.218;2023-12-20T05:56:04;25.2;;;17.6;;
41229;SDS011;26964;50.428;19.218;2023-12-20T05:57:05;46.4;;;23.4;;
41229;SDS011;26964;50.428;19.218;2023-12-20T05:58:04;32.7;;;19.6;;
41229;SDS011;26964;50.428;19.218;2023-12-20T05:59:04;43.7;;;23.9;;
41229;SDS011;26964;50.428;19.218;2023-12-20T06:00:04;34.5;;;19.9;;
41229;SDS011;26964;50.428;19.218;2023-12-20T06:01:04;36.9;;;21.2;;
41229;SDS011;26964;50.428;19.218;2023-12-20T06:02:04;33.3;;;19.0;;
41229;SDS011;26964;50.428;19.218;2023-12-20T06:03:04;31.0;;;19.5;;